createdAt,value
2022-11-29T00:00:58.542Z,1.65
2022-11-29T00:03:26.203Z,1.79
2022-11-29T00:05:53.768Z,1.91
2022-11-29T00:08:21.162Z,1.76
2022-11-29T00:10:48.425Z,1.74
2022-11-29T00:13:15.967Z,1.75
2022-11-29T00:15:43.232Z,1.65
2022-11-29T00:18:10.631Z,1.69
2022-11-29T00:20:38.823Z,1.70
2022-11-29T00:23:06.277Z,1.74
2022-11-29T00:25:33.751Z,1.70
2022-11-29T00:28:01.099Z,1.79
2022-11-29T00:30:28.622Z,1.67
2022-11-29T00:32:56.147Z,1.79
2022-11-29T00:35:23.579Z,1.76
2022-11-29T00:37:50.988Z,1.66
2022-11-29T00:40:18.755Z,1.59
2022-11-29T00:42:46.122Z,1.71
2022-11-29T00:45:13.521Z,1.86
2022-11-29T00:47:40.965Z,1.92
2022-11-29T00:50:08.444Z,1.72
2022-11-29T00:52:35.836Z,1.83
2022-11-29T00:55:03.621Z,1.51
2022-11-29T00:57:31.014Z,1.54
2022-11-29T00:59:58.414Z,1.49
2022-11-29T01:02:25.981Z,1.61
2022-11-29T01:04:53.375Z,1.75
2022-11-29T01:07:20.745Z,1.76
2022-11-29T01:09:48.180Z,1.86
2022-11-29T01:12:15.601Z,1.93
2022-11-29T01:14:43.485Z,1.83
2022-11-29T01:17:11.017Z,1.79
2022-11-29T01:19:38.907Z,1.90
2022-11-29T01:22:06.156Z,1.75
2022-11-29T01:24:33.478Z,1.72
2022-11-29T01:27:01.074Z,1.38
2022-11-29T01:29:28.553Z,1.59
2022-11-29T01:31:55.914Z,1.71
2022-11-29T01:34:23.531Z,1.49
2022-11-29T01:36:50.939Z,1.44
2022-11-29T01:39:18.316Z,1.57
2022-11-29T01:41:45.842Z,1.48
2022-11-29T01:44:13.202Z,1.34
2022-11-29T01:46:41.432Z,1.32
2022-11-29T01:49:09.273Z,1.50
2022-11-29T01:51:37.329Z,1.56
2022-11-29T01:54:04.961Z,1.57
2022-11-29T01:56:32.896Z,1.48
2022-11-29T01:59:01.424Z,1.25
2022-11-29T02:01:28.925Z,1.49
2022-11-29T02:03:56.288Z,1.50
2022-11-29T02:06:23.619Z,1.45
2022-11-29T02:08:51.209Z,1.49
2022-11-29T02:11:23.170Z,1.51
2022-11-29T02:13:50.576Z,1.59
2022-11-29T02:16:21.082Z,1.62
2022-11-29T02:19:07.963Z,1.32
2022-11-29T02:21:54.354Z,1.48
2022-11-29T02:24:40.588Z,1.54
2022-11-29T02:27:17.264Z,1.37
2022-11-29T02:29:57.654Z,1.31
2022-11-29T02:32:25.002Z,1.32
2022-11-29T02:34:53.713Z,1.30
2022-11-29T02:37:20.956Z,1.30
2022-11-29T02:40:01.098Z,1.30
2022-11-29T02:42:56.590Z,1.31
2022-11-29T02:45:43.283Z,1.13
2022-11-29T02:48:28.362Z,1.25
2022-11-29T02:50:58.586Z,1.29
2022-11-29T02:53:44.456Z,1.31
2022-11-29T02:56:18.115Z,1.32
2022-11-29T02:58:47.290Z,1.35
2022-11-29T03:01:37.951Z,1.31
2022-11-29T03:04:05.258Z,1.16
2022-11-29T03:06:36.970Z,1.34
2022-11-29T03:09:23.209Z,1.30
2022-11-29T03:11:56.909Z,1.41
2022-11-29T03:14:24.997Z,1.44
2022-11-29T03:16:58.541Z,1.52
2022-11-29T03:19:44.536Z,1.48
2022-11-29T03:22:12.027Z,1.38
2022-11-29T03:24:45.481Z,1.44
2022-11-29T03:27:13.901Z,1.46
2022-11-29T03:29:41.234Z,1.33
2022-11-29T03:32:31.887Z,1.56
2022-11-29T03:34:59.344Z,1.58
2022-11-29T03:37:35.856Z,1.40
2022-11-29T03:40:03.478Z,1.53
2022-11-29T03:42:35.629Z,1.52
2022-11-29T03:45:08.243Z,1.51
2022-11-29T03:47:36.963Z,1.48
2022-11-29T03:50:04.345Z,1.47
2022-11-29T03:52:32.162Z,1.45
2022-11-29T03:55:08.841Z,1.32
2022-11-29T03:57:45.288Z,1.33
2022-11-29T04:00:13.307Z,1.33
2022-11-29T04:02:46.798Z,1.57
2022-11-29T04:05:29.870Z,1.34
2022-11-29T04:08:15.769Z,1.37
2022-11-29T04:10:55.403Z,1.36
2022-11-29T04:13:29.283Z,1.64
2022-11-29T04:16:15.534Z,1.51
2022-11-29T04:18:42.925Z,1.39
2022-11-29T04:21:10.174Z,1.38
2022-11-29T04:23:49.538Z,1.31
2022-11-29T04:26:35.385Z,1.40
2022-11-29T04:29:11.619Z,1.41
2022-11-29T04:31:39.130Z,1.52
2022-11-29T04:34:09.268Z,1.44
2022-11-29T04:36:57.489Z,1.35
2022-11-29T04:39:24.817Z,1.38
2022-11-29T04:41:57.824Z,1.28
2022-11-29T04:44:25.178Z,1.31
2022-11-29T04:47:01.669Z,1.48
2022-11-29T04:49:29.173Z,1.48
2022-11-29T04:52:06.391Z,1.31
2022-11-29T04:54:39.655Z,1.26
2022-11-29T04:57:13.342Z,1.19
2022-11-29T04:59:59.508Z,1.39
2022-11-29T05:02:36.189Z,1.34
2022-11-29T05:05:07.956Z,1.13
2022-11-29T05:07:48.469Z,1.32
2022-11-29T05:10:15.953Z,1.31
2022-11-29T05:12:47.661Z,1.04
2022-11-29T05:15:30.476Z,1.05
2022-11-29T05:18:09.514Z,1.14
2022-11-29T05:21:15.746Z,0.97
2022-11-29T05:24:02.658Z,1.00
2022-11-29T05:26:34.182Z,1.07
2022-11-29T05:29:01.573Z,1.12
2022-11-29T05:31:30.743Z,1.12
2022-11-29T05:34:16.965Z,1.02
2022-11-29T05:36:53.704Z,0.94
2022-11-29T05:39:33.411Z,1.02
2022-11-29T05:42:16.287Z,1.03
2022-11-29T05:44:48.826Z,1.00
2022-11-29T05:47:18.417Z,0.97
2022-11-29T05:49:57.991Z,0.99
2022-11-29T05:52:42.402Z,1.17
2022-11-29T05:55:22.137Z,1.02
2022-11-29T05:57:58.922Z,0.90
2022-11-29T06:00:33.604Z,0.94
2022-11-29T06:03:04.118Z,0.98
2022-11-29T06:05:34.543Z,0.97
2022-11-29T06:08:20.707Z,1.11
2022-11-29T06:10:56.723Z,1.12
2022-11-29T06:13:27.212Z,1.12
2022-11-29T06:15:57.809Z,0.98
2022-11-29T06:18:25.227Z,0.92
2022-11-29T06:21:02.022Z,0.90
2022-11-29T06:23:51.126Z,0.91
2022-11-29T06:26:29.297Z,0.66
2022-11-29T06:29:15.767Z,0.67
2022-11-29T06:31:44.648Z,0.80
2022-11-29T06:34:30.715Z,0.86
2022-11-29T06:37:34.342Z,1.14
2022-11-29T06:40:02.309Z,1.13
2022-11-29T06:42:30.308Z,1.07
2022-11-29T06:44:57.952Z,1.11
2022-11-29T06:47:28.214Z,0.86
2022-11-29T06:50:01.436Z,0.86
2022-11-29T06:52:59.068Z,0.95
2022-11-29T06:55:52.766Z,1.02
2022-11-29T06:58:28.349Z,0.78
2022-11-29T07:01:05.238Z,0.75
2022-11-29T07:03:33.317Z,0.86
2022-11-29T07:06:01.806Z,0.92
2022-11-29T13:58:29.136Z,2.52
2022-11-29T14:01:06.738Z,2.34
2022-11-29T14:03:38.823Z,2.43
2022-11-29T14:06:22.000Z,2.38
2022-11-29T14:09:17.805Z,2.09
2022-11-29T14:11:44.877Z,2.30
2022-11-29T14:14:31.703Z,2.18
2022-11-29T14:17:01.333Z,2.27
2022-11-29T14:19:33.335Z,2.18
2022-11-29T14:22:07.099Z,2.32
2022-11-29T14:24:38.114Z,2.23
2022-11-29T14:27:14.729Z,2.18
2022-11-29T14:29:48.848Z,2.17
2022-11-29T14:32:22.820Z,2.16
2022-11-29T14:34:52.644Z,2.18
2022-11-29T14:37:22.667Z,2.28
2022-11-29T14:39:50.318Z,2.27
2022-11-29T14:42:18.932Z,2.42
2022-11-29T14:44:47.612Z,2.31
2022-11-29T14:47:15.047Z,2.17
2022-11-29T14:49:43.340Z,2.34
2022-11-29T14:52:13.708Z,2.08
2022-11-29T14:54:55.407Z,2.12
2022-11-29T14:57:42.198Z,2.13
2022-11-29T15:00:11.165Z,2.16
2022-11-29T15:02:46.032Z,2.13
2022-11-29T15:05:16.870Z,2.01
2022-11-29T15:07:55.284Z,2.24
2022-11-29T15:10:24.625Z,2.19
2022-11-29T15:12:52.119Z,2.09
2022-11-29T15:15:38.859Z,2.12
2022-11-29T15:18:25.056Z,1.96
2022-11-29T15:20:55.052Z,1.85
2022-11-29T15:23:22.404Z,2.18
2022-11-29T15:25:51.444Z,2.13
2022-11-29T15:28:20.398Z,2.14
2022-11-29T15:30:47.967Z,1.96
2022-11-29T15:33:19.456Z,1.90
2022-11-29T15:35:54.440Z,1.92
2022-11-29T15:38:22.379Z,1.80
2022-11-29T15:40:53.381Z,2.08
2022-11-29T15:43:24.093Z,2.01
2022-11-29T15:45:52.214Z,2.03
2022-11-29T15:48:20.760Z,1.97
2022-11-29T15:50:57.286Z,1.98
2022-11-29T15:53:29.770Z,1.70
2022-11-29T15:55:57.307Z,1.71
2022-11-29T15:58:26.050Z,1.86
2022-11-29T16:00:53.580Z,1.67
2022-11-29T16:03:30.070Z,1.72
2022-11-29T16:06:00.506Z,1.71
2022-11-29T16:08:29.186Z,1.72
2022-11-29T22:39:06.283Z,-1.09
2022-11-29T22:41:34.142Z,-1.05
2022-11-29T22:44:01.638Z,-1.08
2022-11-29T22:46:30.025Z,-0.95
2022-11-29T22:48:58.483Z,-0.97
2022-11-29T22:51:30.762Z,-0.95
2022-11-29T22:53:58.918Z,-0.92
2022-11-29T22:56:27.248Z,-1.25
2022-11-29T22:58:54.749Z,-1.01
2022-11-29T23:01:23.199Z,-0.82
2022-11-29T23:03:54.719Z,-1.02
2022-11-29T23:06:25.261Z,-1.16
2022-11-29T23:08:53.481Z,-1.06
2022-11-29T23:11:21.649Z,-0.98
2022-11-29T23:13:49.029Z,-0.94
2022-11-29T23:16:21.245Z,-0.98
2022-11-29T23:18:48.996Z,-0.95
2022-11-29T23:21:17.882Z,-0.94
2022-11-29T23:23:45.409Z,-0.94
2022-11-29T23:26:22.467Z,-1.11
2022-11-29T23:28:50.709Z,-1.06
2022-11-29T23:31:18.447Z,-1.04
2022-11-29T23:33:46.372Z,-1.04
2022-11-29T23:36:13.822Z,-0.96
2022-11-29T23:38:41.269Z,-1.20
2022-11-29T23:41:09.525Z,-1.24
2022-11-29T23:43:37.249Z,-1.06
2022-11-29T23:46:08.140Z,-1.33
2022-11-29T23:48:36.510Z,-1.09
2022-11-29T23:51:07.683Z,-1.38
2022-11-29T23:53:35.113Z,-1.35
2022-11-29T23:56:03.184Z,-1.17
2022-11-29T23:58:30.947Z,-1.24
